Time,TemperatureF,DewpointF,PressureIn,WindDirection,WindDirectionDegrees,WindSpeedMPH,WindSpeedGustMPH,Humidity,HourlyPrecipIn,Conditions,Clouds,dailyrainin,SolarRadiationWatts/m^2,SoftwareType,DateUTC
2013-10-05 00:00:00,74.6,20.5,30.01,NE,56,8.1,8.1,13,0.00,CLR,,0.00,0.0,WeatherDisplay:10.37,2013-10-05 07:00:00,
2013-10-05 00:05:00,75.1,20.9,30.01,East,90,10.4,10.4,13,0.00,CLR,,0.00,0.0,WeatherDisplay:10.37,2013-10-05 07:05:00,
2013-10-05 00:10:00,75.4,21.1,30.01,NE,53,11.5,11.5,13,0.00,CLR,,0.00,0.0,WeatherDisplay:10.37,2013-10-05 07:10:00,
2013-10-05 00:15:00,75.2,20.9,30.01,East,82,11.5,11.5,13,0.00,CLR,,0.00,0.0,WeatherDisplay:10.37,2013-10-05 07:15:00,
2013-10-05 00:20:00,75.0,20.8,30.01,East,84,6.9,6.9,13,0.00,CLR,,0.00,0.0,WeatherDisplay:10.37,2013-10-05 07:20:00,
2013-10-05 00:25:00,74.7,20.5,30.01,ENE,72,7.0,7.0,13,0.00,CLR,,0.00,0.0,WeatherDisplay:10.37,2013-10-05 07:25:00,
2013-10-05 00:30:00,74.6,20.5,30.01,NE,40,5.8,5.8,13,0.00,CLR,,0.00,0.0,WeatherDisplay:10.37,2013-10-05 07:30:00,
2013-10-05 00:35:00,74.5,20.4,30.01,East,88,8.1,8.1,13,0.00,CLR,,0.00,0.0,WeatherDisplay:10.37,2013-10-05 07:35:00,
2013-10-05 00:40:00,74.8,20.6,30.01,NE,49,5.8,5.8,13,0.00,CLR,,0.00,0.0,WeatherDisplay:10.37,2013-10-05 07:40:00,
2013-10-05 00:45:00,74.5,22.1,30.02,NE,54,4.6,4.6,14,0.00,CLR,,0.00,0.0,WeatherDisplay:10.37,2013-10-05 07:45:00,
2013-10-05 00:50:00,74.0,21.7,30.01,ENE,63,5.0,5.0,14,0.00,CLR,,0.00,0.0,WeatherDisplay:10.37,2013-10-05 07:50:00,
2013-10-05 00:55:00,74.2,21.9,30.01,ENE,71,6.0,6.0,14,0.00,CLR,,0.00,0.0,WeatherDisplay:10.37,2013-10-05 07:55:00,
2013-10-05 01:00:00,74.8,20.6,30.01,East,86,9.0,9.0,13,0.00,CLR,,0.00,0.0,WeatherDisplay:10.37,2013-10-05 08:00:00,
2013-10-05 01:05:00,75.3,21.0,30.02,NE,53,10.0,10.0,13,0.00,CLR,,0.00,0.0,WeatherDisplay:10.37,2013-10-05 08:05:00,
2013-10-05 01:10:00,75.6,21.2,30.01,ENE,67,8.0,8.0,13,0.00,CLR,,0.00,0.0,WeatherDisplay:10.37,2013-10-05 08:10:00,
2013-10-05 01:15:00,75.6,21.2,30.01,ENE,67,10.0,10.0,13,0.00,CLR,,0.00,0.0,WeatherDisplay:10.37,2013-10-05 08:15:00,
2013-10-05 01:20:00,75.5,21.2,30.01,East,80,11.5,11.5,13,0.00,CLR,,0.00,0.0,WeatherDisplay:10.37,2013-10-05 08:20:00,
2013-10-05 01:25:00,75.3,21.0,30.01,East,82,9.2,9.2,13,0.00,CLR,,0.00,0.0,WeatherDisplay:10.37,2013-10-05 08:25:00,
2013-10-05 01:30:00,75.0,20.8,30.01,ENE,70,4.6,4.6,13,0.00,CLR,,0.00,0.0,WeatherDisplay:10.37,2013-10-05 08:30:00,
2013-10-05 01:35:00,74.6,22.2,30.02,ENE,59,3.5,3.5,14,0.00,CLR,,0.00,0.0,WeatherDisplay:10.37,2013-10-05 08:35:00,
2013-10-05 01:40:00,73.8,23.2,30.02,ENE,59,1.2,0.0,15,0.00,CLR,,0.00,0.0,WeatherDisplay:10.37,2013-10-05 08:40:00,
2013-10-05 01:45:00,72.8,24.0,30.02,ENE,58,2.3,2.3,16,0.00,CLR,,0.00,0.0,WeatherDisplay:10.37,2013-10-05 08:45:00,
2013-10-05 01:50:00,71.7,24.5,30.02,ENE,58,1.2,0.0,17,0.00,CLR,,0.00,0.0,WeatherDisplay:10.37,2013-10-05 08:50:00,
2013-10-05 01:55:00,71.1,25.4,30.02,ENE,58,1.2,0.0,18,0.00,CLR,,0.00,0.0,WeatherDisplay:10.37,2013-10-05 08:55:00,
2013-10-05 02:00:00,70.6,25.0,30.02,ENE,58,2.3,2.3,18,0.00,CLR,,0.00,0.0,WeatherDisplay:10.37,2013-10-05 09:00:00,
2013-10-05 02:05:00,70.3,24.8,30.02,ENE,58,2.0,2.0,18,0.00,CLR,,0.00,0.0,WeatherDisplay:10.37,2013-10-05 09:05:00,
2013-10-05 02:10:00,70.3,23.4,30.02,ENE,57,2.3,2.3,17,0.00,CLR,,0.00,0.0,WeatherDisplay:10.37,2013-10-05 09:10:00,
2013-10-05 02:15:00,70.4,23.5,30.02,NE,42,3.5,3.5,17,0.00,CLR,,0.00,0.0,WeatherDisplay:10.37,2013-10-05 09:15:00,
2013-10-05 02:20:00,70.2,24.7,30.02,NE,42,15.0,15.0,18,0.00,CLR,,0.00,0.0,WeatherDisplay:10.37,2013-10-05 09:20:00,
2013-10-05 02:25:00,70.0,24.5,30.02,NE,42,2.3,2.3,18,0.00,CLR,,0.00,0.0,WeatherDisplay:10.37,2013-10-05 09:25:00,
2013-10-05 02:30:00,69.7,25.6,30.02,NE,42,2.3,2.3,19,0.00,CLR,,0.00,0.0,WeatherDisplay:10.37,2013-10-05 09:30:00,
2013-10-05 02:35:00,69.2,26.4,30.02,NE,42,2.0,2.0,20,0.00,CLR,,0.00,0.0,WeatherDisplay:10.37,2013-10-05 09:35:00,
2013-10-05 02:40:00,68.8,27.2,30.02,NE,42,3.5,3.5,21,0.00,CLR,,0.00,0.0,WeatherDisplay:10.37,2013-10-05 09:40:00,
2013-10-05 02:45:00,68.3,26.8,30.02,NE,42,2.3,2.3,21,0.00,CLR,,0.00,0.0,WeatherDisplay:10.37,2013-10-05 09:45:00,
2013-10-05 02:50:00,67.9,27.6,30.02,NE,42,3.5,3.5,22,0.00,CLR,,0.00,0.0,WeatherDisplay:10.37,2013-10-05 09:50:00,
2013-10-05 02:55:00,67.6,27.4,30.02,NE,41,2.0,2.0,22,0.00,CLR,,0.00,0.0,WeatherDisplay:10.37,2013-10-05 09:55:00,
2013-10-05 03:00:00,67.3,28.2,30.02,NE,42,2.3,2.3,23,0.00,CLR,,0.00,0.0,WeatherDisplay:10.37,2013-10-05 10:00:00,
2013-10-05 03:05:00,67.2,28.1,30.01,NE,41,2.3,2.3,23,0.00,CLR,,0.00,0.0,WeatherDisplay:10.37,2013-10-05 10:05:00,
2013-10-05 03:10:00,67.1,28.0,30.02,NE,41,2.0,2.0,23,0.00,CLR,,0.00,0.0,WeatherDisplay:10.37,2013-10-05 10:10:00,
2013-10-05 03:15:00,67.1,26.9,30.02,NE,41,2.3,2.3,22,0.00,CLR,,0.00,0.0,WeatherDisplay:10.37,2013-10-05 10:15:00,
2013-10-05 03:20:00,67.1,26.9,30.01,NE,41,2.3,2.3,22,0.00,CLR,,0.00,0.0,WeatherDisplay:10.37,2013-10-05 10:20:00,
2013-10-05 03:25:00,67.0,26.9,30.01,NE,41,0.0,0.0,22,0.00,CLR,,0.00,0.0,WeatherDisplay:10.37,2013-10-05 10:25:00,
2013-10-05 03:30:00,66.9,26.8,30.02,NE,41,0.0,0.0,22,0.00,CLR,,0.00,0.0,WeatherDisplay:10.37,2013-10-05 10:30:00,
2013-10-05 03:35:00,66.7,26.6,30.02,NE,41,1.2,0.0,22,0.00,CLR,,0.00,0.0,WeatherDisplay:10.37,2013-10-05 10:35:00,
2013-10-05 03:40:00,66.5,27.5,30.01,NE,41,2.3,0.0,23,0.00,CLR,,0.00,0.0,WeatherDisplay:10.37,2013-10-05 10:40:00,
2013-10-05 03:45:00,66.1,28.2,30.02,NE,41,1.2,1.2,24,0.00,CLR,,0.00,0.0,WeatherDisplay:10.37,2013-10-05 10:45:00,
2013-10-05 03:50:00,65.6,29.8,30.02,NE,41,2.3,2.3,26,0.00,CLR,,0.00,0.0,WeatherDisplay:10.37,2013-10-05 10:50:00,
2013-10-05 03:55:00,65.1,31.2,30.02,NE,41,1.2,1.2,28,0.00,CLR,,0.00,0.0,WeatherDisplay:10.37,2013-10-05 10:55:00,
2013-10-05 04:00:00,64.8,31.8,30.02,NE,41,1.2,0.0,29,0.00,CLR,,0.00,0.0,WeatherDisplay:10.37,2013-10-05 11:00:00,
2013-10-05 04:05:00,64.3,33.0,30.02,NE,41,2.3,2.3,31,0.00,CLR,,0.00,0.0,WeatherDisplay:10.37,2013-10-05 11:05:00,
2013-10-05 04:10:00,64.0,34.3,30.02,NE,41,1.2,0.0,33,0.00,CLR,,0.00,0.0,WeatherDisplay:10.37,2013-10-05 11:10:00,
2013-10-05 04:15:00,63.7,34.8,30.02,NE,41,1.2,1.2,34,0.00,CLR,,0.00,0.0,WeatherDisplay:10.37,2013-10-05 11:15:00,
2013-10-05 04:20:00,63.2,34.3,30.02,NE,41,1.2,0.0,34,0.00,CLR,,0.00,0.0,WeatherDisplay:10.37,2013-10-05 11:20:00,
2013-10-05 04:25:00,62.7,34.6,30.02,NE,41,3.5,3.5,35,0.00,CLR,,0.00,0.0,WeatherDisplay:10.37,2013-10-05 11:25:00,
2013-10-05 04:30:00,62.5,32.2,30.02,NE,41,1.2,1.2,32,0.00,CLR,,0.00,0.0,WeatherDisplay:10.37,2013-10-05 11:30:00,
2013-10-05 04:35:00,62.6,33.8,30.01,NE,41,1.2,0.0,34,0.00,CLR,,0.00,0.0,WeatherDisplay:10.37,2013-10-05 11:35:00,
2013-10-05 04:40:00,62.8,31.7,30.02,NE,41,2.3,2.3,31,0.00,CLR,,0.00,0.0,WeatherDisplay:10.37,2013-10-05 11:40:00,
2013-10-05 04:45:00,63.7,30.8,30.02,NE,40,3.5,3.5,29,0.00,CLR,,0.00,0.0,WeatherDisplay:10.37,2013-10-05 11:45:00,
2013-10-05 04:50:00,64.3,30.5,30.02,NE,46,3.5,3.5,28,0.00,CLR,,0.00,0.0,WeatherDisplay:10.37,2013-10-05 11:50:00,
2013-10-05 04:55:00,63.9,31.8,30.02,NE,46,3.0,3.0,30,0.00,CLR,,0.00,0.0,WeatherDisplay:10.37,2013-10-05 11:55:00,
2013-10-05 05:00:00,63.6,30.7,30.02,NE,46,2.3,2.3,29,0.00,CLR,,0.00,0.0,WeatherDisplay:10.37,2013-10-05 12:00:00,
2013-10-05 05:05:00,63.6,29.9,30.02,NE,46,2.3,2.3,28,0.00,CLR,,0.00,0.0,WeatherDisplay:10.37,2013-10-05 12:05:00,
2013-10-05 05:10:00,64.0,29.3,30.02,NE,49,2.0,2.0,27,0.00,CLR,,0.00,0.0,WeatherDisplay:10.37,2013-10-05 12:10:00,
2013-10-05 05:15:00,65.8,25.9,30.02,East,94,4.6,4.6,22,0.00,CLR,,0.00,0.0,WeatherDisplay:10.37,2013-10-05 12:15:00,
2013-10-05 05:20:00,68.0,25.4,30.02,ESE,111,1.2,1.2,20,0.00,CLR,,0.00,0.0,WeatherDisplay:10.37,2013-10-05 12:20:00,
2013-10-05 05:25:00,69.1,25.1,30.02,ESE,111,1.2,0.0,19,0.00,CLR,,0.00,0.0,WeatherDisplay:10.37,2013-10-05 12:25:00,
2013-10-05 05:30:00,68.2,33.8,30.03,East,80,3.5,3.5,28,0.00,CLR,,0.00,0.0,WeatherDisplay:10.37,2013-10-05 12:30:00,
2013-10-05 05:35:00,66.1,32.9,30.03,ENE,66,3.5,3.5,29,0.00,CLR,,0.00,0.0,WeatherDisplay:10.37,2013-10-05 12:35:00,
2013-10-05 05:40:00,64.6,33.3,30.03,ENE,66,2.3,2.3,31,0.00,CLR,,0.00,0.0,WeatherDisplay:10.37,2013-10-05 12:40:00,
2013-10-05 05:45:00,63.7,32.5,30.03,ENE,61,2.3,2.3,31,0.00,CLR,,0.00,0.0,WeatherDisplay:10.37,2013-10-05 12:45:00,
2013-10-05 05:50:00,63.2,32.8,30.03,North,355,3.5,3.5,32,0.00,CLR,,0.00,0.0,WeatherDisplay:10.37,2013-10-05 12:50:00,
2013-10-05 05:55:00,63.1,32.7,30.03,North,351,1.2,0.0,32,0.00,CLR,,0.00,0.0,WeatherDisplay:10.37,2013-10-05 12:55:00,
2013-10-05 06:01:00,62.9,33.3,30.03,North,351,3.5,3.5,33,0.00,CLR,,0.00,0.0,WeatherDisplay:10.37,2013-10-05 13:01:00,
2013-10-05 06:06:00,62.5,33.0,30.03,North,351,2.3,2.3,33,0.00,CLR,,0.00,0.0,WeatherDisplay:10.37,2013-10-05 13:06:00,
2013-10-05 06:11:00,62.1,33.4,30.04,North,351,1.2,1.2,34,0.00,CLR,,0.00,0.0,WeatherDisplay:10.37,2013-10-05 13:11:00,
2013-10-05 06:16:00,61.8,33.8,30.04,North,351,2.3,2.3,35,0.00,CLR,,0.00,0.0,WeatherDisplay:10.37,2013-10-05 13:16:00,
2013-10-05 06:21:00,61.5,33.6,30.04,North,351,1.2,1.2,35,0.00,CLR,,0.00,0.0,WeatherDisplay:10.37,2013-10-05 13:21:00,
2013-10-05 06:26:00,61.3,33.4,30.04,North,351,1.2,1.2,35,0.00,CLR,,0.00,0.0,WeatherDisplay:10.37,2013-10-05 13:26:00,
2013-10-05 06:31:00,61.0,33.1,30.05,North,351,2.3,2.3,35,0.00,CLR,,0.00,0.0,WeatherDisplay:10.37,2013-10-05 13:31:00,
2013-10-05 06:36:00,60.9,33.0,30.04,North,355,3.5,3.5,35,0.00,CLR,,0.00,0.0,WeatherDisplay:10.37,2013-10-05 13:36:00,
2013-10-05 06:41:00,60.9,33.0,30.04,North,355,1.2,1.2,35,0.00,CLR,,0.00,0.0,WeatherDisplay:10.37,2013-10-05 13:41:00,
2013-10-05 06:46:00,61.0,33.1,30.05,North,355,2.3,2.3,35,0.00,CLR,,0.00,0.0,WeatherDisplay:10.37,2013-10-05 13:46:00,
2013-10-05 06:51:00,61.1,33.2,30.05,North,355,1.2,1.2,35,0.00,CLR,,0.00,0.0,WeatherDisplay:10.37,2013-10-05 13:51:00,
2013-10-05 06:56:00,61.2,33.3,30.05,North,355,3.5,3.5,35,0.00,BKN,,0.00,7.0,WeatherDisplay:10.37,2013-10-05 13:56:00,
2013-10-05 07:01:00,61.2,33.3,30.05,North,355,3.5,3.5,35,0.00,BKN,,0.00,9.0,WeatherDisplay:10.37,2013-10-05 14:01:00,
2013-10-05 07:06:00,61.1,33.9,30.05,North,355,3.5,3.5,36,0.00,BKN,,0.00,12.0,WeatherDisplay:10.37,2013-10-05 14:06:00,
2013-10-05 07:11:00,61.0,33.8,30.06,North,355,1.2,1.2,36,0.00,BKN,,0.00,14.0,WeatherDisplay:10.37,2013-10-05 14:11:00,
2013-10-05 07:16:00,61.2,33.3,30.06,North,355,0.0,0.0,35,0.00,BKN,,0.00,16.0,WeatherDisplay:10.37,2013-10-05 14:16:00,
2013-10-05 07:21:00,61.4,34.2,30.06,North,355,1.0,0.0,36,0.00,BKN,,0.00,26.0,WeatherDisplay:10.37,2013-10-05 14:21:00,
2013-10-05 07:26:00,61.6,35.1,30.06,North,355,1.2,1.2,37,0.00,BKN,,0.00,40.0,WeatherDisplay:10.37,2013-10-05 14:26:00,
2013-10-05 07:31:00,62.2,34.9,30.06,North,355,3.5,3.5,36,0.00,BKN,,0.00,53.0,WeatherDisplay:10.37,2013-10-05 14:31:00,
2013-10-05 07:36:00,62.9,35.5,30.06,North,355,3.5,3.5,36,0.00,SCT,,0.00,63.0,WeatherDisplay:10.37,2013-10-05 14:36:00,
2013-10-05 07:41:00,63.4,35.2,30.06,North,355,3.5,0.0,35,0.00,SCT,,0.00,76.0,WeatherDisplay:10.37,2013-10-05 14:41:00,
2013-10-05 07:46:00,63.9,35.7,30.06,North,355,2.0,2.0,35,0.00,SCT,,0.00,91.0,WeatherDisplay:10.37,2013-10-05 14:46:00,
2013-10-05 07:51:00,64.7,35.7,30.06,North,355,2.3,2.3,34,0.00,SCT,,0.00,107.0,WeatherDisplay:10.37,2013-10-05 14:51:00,
2013-10-05 07:56:00,65.4,35.5,30.07,North,355,3.5,3.5,33,0.00,SCT,,0.00,125.0,WeatherDisplay:10.37,2013-10-05 14:56:00,
2013-10-05 08:01:00,66.0,35.3,30.07,North,355,3.5,3.5,32,0.00,FEW,,0.00,144.0,WeatherDisplay:10.37,2013-10-05 15:01:00,
2013-10-05 08:06:00,66.8,36.0,30.07,North,355,2.3,2.3,32,0.00,FEW,,0.00,162.0,WeatherDisplay:10.37,2013-10-05 15:06:00,
2013-10-05 08:11:00,67.4,36.5,30.07,North,355,1.2,1.2,32,0.00,FEW,,0.00,181.0,WeatherDisplay:10.37,2013-10-05 15:11:00,
2013-10-05 08:16:00,67.9,36.1,30.08,North,355,3.5,3.5,31,0.00,FEW,,0.00,197.0,WeatherDisplay:10.37,2013-10-05 15:16:00,
2013-10-05 08:21:00,68.5,35.0,30.08,North,355,1.2,1.2,29,0.00,FEW,,0.00,214.0,WeatherDisplay:10.37,2013-10-05 15:21:00,
2013-10-05 08:26:00,69.2,33.8,30.08,North,355,1.2,1.2,27,0.00,FEW,,0.00,230.0,WeatherDisplay:10.37,2013-10-05 15:26:00,
2013-10-05 08:31:00,69.9,33.4,30.08,North,355,1.2,1.2,26,0.00,FEW,,0.00,241.0,WeatherDisplay:10.37,2013-10-05 15:31:00,
2013-10-05 08:36:00,70.5,33.0,30.08,North,351,2.3,2.3,25,0.00,FEW,,0.00,255.0,WeatherDisplay:10.37,2013-10-05 15:36:00,
2013-10-05 08:41:00,71.2,34.5,30.08,North,351,2.3,2.3,26,0.00,FEW,,0.00,271.0,WeatherDisplay:10.37,2013-10-05 15:41:00,
2013-10-05 08:46:00,71.7,34.0,30.08,NNW,348,3.5,3.5,25,0.00,CLR,,0.00,283.0,WeatherDisplay:10.37,2013-10-05 15:46:00,
2013-10-05 08:51:00,72.4,33.5,30.08,NNW,348,1.2,1.2,24,0.00,CLR,,0.00,297.0,WeatherDisplay:10.37,2013-10-05 15:51:00,
2013-10-05 08:56:00,73.0,31.9,30.09,NNW,348,1.2,1.2,22,0.00,CLR,,0.00,313.0,WeatherDisplay:10.37,2013-10-05 15:56:00,
2013-10-05 09:01:00,74.2,32.9,30.09,North,355,4.0,4.0,22,0.00,CLR,,0.00,329.0,WeatherDisplay:10.37,2013-10-05 16:01:00,
2013-10-05 09:06:00,75.1,32.5,30.09,North,355,2.3,2.3,21,0.00,CLR,,0.00,341.0,WeatherDisplay:10.37,2013-10-05 16:06:00,
2013-10-05 09:11:00,76.0,33.2,30.09,NNE,28,7.0,7.0,21,0.00,CLR,,0.00,359.0,WeatherDisplay:10.37,2013-10-05 16:11:00,
2013-10-05 09:16:00,76.9,32.8,30.09,NNE,25,2.0,2.0,20,0.00,CLR,,0.00,373.0,WeatherDisplay:10.37,2013-10-05 16:16:00,
2013-10-05 09:21:00,79.0,22.0,30.09,NE,54,14.0,14.0,12,0.00,CLR,,0.00,385.0,WeatherDisplay:10.37,2013-10-05 16:21:00,
2013-10-05 09:26:00,80.3,21.0,30.09,ENE,57,16.1,16.1,11,0.00,FEW,,0.00,388.0,WeatherDisplay:10.37,2013-10-05 16:26:00,
2013-10-05 09:31:00,80.8,21.3,30.09,East,84,13.0,13.0,11,0.00,FEW,,0.00,396.0,WeatherDisplay:10.37,2013-10-05 16:31:00,
2013-10-05 09:36:00,81.2,21.7,30.09,ENE,61,12.7,12.7,11,0.00,FEW,,0.00,410.0,WeatherDisplay:10.37,2013-10-05 16:36:00,
2013-10-05 09:41:00,81.8,19.9,30.09,SE,136,13.0,13.0,10,0.00,FEW,,0.00,424.0,WeatherDisplay:10.37,2013-10-05 16:41:00,
2013-10-05 09:46:00,82.0,20.0,30.09,East,84,20.0,20.0,10,0.00,FEW,,0.00,450.0,WeatherDisplay:10.37,2013-10-05 16:46:00,
2013-10-05 09:51:00,81.7,17.3,30.09,East,87,18.4,18.4,9,0.00,FEW,,0.00,448.0,WeatherDisplay:10.37,2013-10-05 16:51:00,
2013-10-05 09:56:00,81.9,17.5,30.09,SE,133,16.1,16.1,9,0.00,FEW,,0.00,475.0,WeatherDisplay:10.37,2013-10-05 16:56:00,
2013-10-05 10:01:00,82.1,17.6,30.09,ENE,74,17.3,17.3,9,0.00,CLR,,0.00,489.0,WeatherDisplay:10.37,2013-10-05 17:01:00,
2013-10-05 10:06:00,82.5,15.2,30.08,East,93,20.7,20.7,8,0.00,FEW,,0.00,499.0,WeatherDisplay:10.37,2013-10-05 17:06:00,
2013-10-05 10:11:00,82.9,15.5,30.08,East,86,19.6,19.6,8,0.00,FEW,,0.00,515.0,WeatherDisplay:10.37,2013-10-05 17:11:00,
2013-10-05 10:16:00,83.0,15.6,30.08,East,91,17.3,17.3,8,0.00,FEW,,0.00,524.0,WeatherDisplay:10.37,2013-10-05 17:16:00,
2013-10-05 10:21:00,83.5,12.9,30.08,ENE,69,17.0,17.0,7,0.00,FEW,,0.00,534.0,WeatherDisplay:10.37,2013-10-05 17:21:00,
2013-10-05 10:26:00,83.5,12.9,30.09,ESE,104,23.0,23.0,7,0.00,FEW,,0.00,545.0,WeatherDisplay:10.37,2013-10-05 17:26:00,
2013-10-05 10:31:00,83.6,16.0,30.09,East,84,14.0,14.0,8,0.00,FEW,,0.00,555.0,WeatherDisplay:10.37,2013-10-05 17:31:00,
2013-10-05 10:36:00,83.4,15.9,30.09,East,100,16.1,16.1,8,0.00,FEW,,0.00,566.0,WeatherDisplay:10.37,2013-10-05 17:36:00,
2013-10-05 10:41:00,83.5,16.0,30.09,East,96,23.0,23.0,8,0.00,FEW,,0.00,577.0,WeatherDisplay:10.37,2013-10-05 17:41:00,
2013-10-05 10:46:00,83.2,15.7,30.09,East,88,19.6,19.6,8,0.00,FEW,,0.00,587.0,WeatherDisplay:10.37,2013-10-05 17:46:00,
2013-10-05 10:51:00,83.5,16.0,30.09,ESE,115,16.0,16.0,8,0.00,FEW,,0.00,596.0,WeatherDisplay:10.37,2013-10-05 17:51:00,
2013-10-05 10:56:00,83.9,16.3,30.09,NE,48,19.0,19.0,8,0.00,FEW,,0.00,605.0,WeatherDisplay:10.37,2013-10-05 17:56:00,
2013-10-05 11:01:00,83.9,16.3,30.09,ENE,67,15.0,15.0,8,0.00,FEW,,0.00,613.0,WeatherDisplay:10.37,2013-10-05 18:01:00,
2013-10-05 11:06:00,84.3,16.6,30.09,ENE,71,19.6,19.6,8,0.00,FEW,,0.00,622.0,WeatherDisplay:10.37,2013-10-05 18:06:00,
2013-10-05 11:11:00,84.3,16.6,30.08,East,98,18.4,18.4,8,0.00,FEW,,0.00,628.0,WeatherDisplay:10.37,2013-10-05 18:11:00,
2013-10-05 11:16:00,84.5,16.7,30.08,NE,53,16.0,16.0,8,0.00,FEW,,0.00,636.0,WeatherDisplay:10.37,2013-10-05 18:16:00,
2013-10-05 11:21:00,85.0,14.0,30.09,East,92,17.0,17.0,7,0.00,FEW,,0.00,645.0,WeatherDisplay:10.37,2013-10-05 18:21:00,
2013-10-05 11:26:00,85.2,14.1,30.08,SE,126,16.1,16.1,7,0.00,FEW,,0.00,647.0,WeatherDisplay:10.37,2013-10-05 18:26:00,
2013-10-05 11:31:00,85.7,14.5,30.08,ESE,118,13.8,13.8,7,0.00,FEW,,0.00,659.0,WeatherDisplay:10.37,2013-10-05 18:31:00,
2013-10-05 11:36:00,85.8,14.6,30.08,SSE,148,16.1,16.1,7,0.00,FEW,,0.00,661.0,WeatherDisplay:10.37,2013-10-05 18:36:00,
2013-10-05 11:41:00,85.9,14.7,30.08,East,85,11.5,11.5,7,0.00,FEW,,0.00,663.0,WeatherDisplay:10.37,2013-10-05 18:41:00,
2013-10-05 11:46:00,86.0,14.7,30.08,ENE,77,15.0,15.0,7,0.00,FEW,,0.00,673.0,WeatherDisplay:10.37,2013-10-05 18:46:00,
2013-10-05 11:51:00,85.9,14.7,30.08,East,96,12.7,12.7,7,0.00,FEW,,0.00,675.0,WeatherDisplay:10.37,2013-10-05 18:51:00,
2013-10-05 11:56:00,86.4,18.1,30.08,SE,144,10.4,10.4,8,0.00,FEW,,0.00,682.0,WeatherDisplay:10.37,2013-10-05 18:56:00,
2013-10-05 12:01:00,86.3,15.0,30.08,ESE,111,14.0,14.0,7,0.00,FEW,,0.00,686.0,WeatherDisplay:10.37,2013-10-05 19:01:00,
2013-10-05 12:06:00,86.7,15.2,30.07,ESE,122,11.5,11.5,7,0.00,FEW,,0.00,687.0,WeatherDisplay:10.37,2013-10-05 19:06:00,
2013-10-05 12:11:00,86.9,15.4,30.07,ESE,118,12.7,12.7,7,0.00,FEW,,0.00,693.0,WeatherDisplay:10.37,2013-10-05 19:11:00,
2013-10-05 12:16:00,87.2,15.6,30.07,SE,141,13.8,13.8,7,0.00,FEW,,0.00,691.0,WeatherDisplay:10.37,2013-10-05 19:16:00,
2013-10-05 12:21:00,87.3,15.7,30.07,SE,136,12.7,12.7,7,0.00,FEW,,0.00,694.0,WeatherDisplay:10.37,2013-10-05 19:21:00,
2013-10-05 12:26:00,87.5,15.8,30.06,ENE,57,15.0,15.0,7,0.00,FEW,,0.00,698.0,WeatherDisplay:10.37,2013-10-05 19:26:00,
2013-10-05 12:31:00,87.4,15.8,30.07,ESE,113,13.8,13.8,7,0.00,FEW,,0.00,698.0,WeatherDisplay:10.37,2013-10-05 19:31:00,
2013-10-05 12:36:00,87.4,15.8,30.06,SE,128,14.0,14.0,7,0.00,FEW,,0.00,698.0,WeatherDisplay:10.37,2013-10-05 19:36:00,
2013-10-05 12:41:00,87.6,15.9,30.06,ENE,63,10.0,10.0,7,0.00,FEW,,0.00,698.0,WeatherDisplay:10.37,2013-10-05 19:41:00,
2013-10-05 12:46:00,87.9,12.6,30.06,ESE,123,16.1,16.1,6,0.00,FEW,,0.00,696.0,WeatherDisplay:10.37,2013-10-05 19:46:00,
2013-10-05 12:51:00,88.0,12.7,30.05,ESE,111,15.0,15.0,6,0.00,FEW,,0.00,694.0,WeatherDisplay:10.37,2013-10-05 19:51:00,
2013-10-05 12:56:00,87.6,12.4,30.05,East,92,15.0,15.0,6,0.00,FEW,,0.00,693.0,WeatherDisplay:10.37,2013-10-05 19:56:00,
2013-10-05 13:01:00,88.1,12.7,30.05,East,93,17.0,17.0,6,0.00,FEW,,0.00,689.0,WeatherDisplay:10.37,2013-10-05 20:01:00,
2013-10-05 13:06:00,87.9,12.6,30.05,ESE,118,15.0,15.0,6,0.00,FEW,,0.00,689.0,WeatherDisplay:10.37,2013-10-05 20:06:00,
2013-10-05 13:11:00,88.2,12.8,30.05,ESE,104,18.4,18.4,6,0.00,FEW,,0.00,687.0,WeatherDisplay:10.37,2013-10-05 20:11:00,
2013-10-05 13:16:00,88.4,13.0,30.04,ESE,119,14.0,14.0,6,0.00,FEW,,0.00,684.0,WeatherDisplay:10.37,2013-10-05 20:16:00,
2013-10-05 13:21:00,89.1,13.5,30.04,ESE,120,16.1,16.1,6,0.00,FEW,,0.00,679.0,WeatherDisplay:10.37,2013-10-05 20:21:00,
2013-10-05 13:26:00,89.5,13.7,30.03,ENE,77,11.5,11.5,6,0.00,FEW,,0.00,679.0,WeatherDisplay:10.37,2013-10-05 20:26:00,
2013-10-05 13:31:00,90.0,14.1,30.03,ESE,103,12.0,12.0,6,0.00,FEW,,0.00,673.0,WeatherDisplay:10.37,2013-10-05 20:31:00,
2013-10-05 13:36:00,90.0,14.1,30.02,ESE,117,16.1,16.1,6,0.00,FEW,,0.00,666.0,WeatherDisplay:10.37,2013-10-05 20:36:00,
2013-10-05 13:41:00,89.9,14.0,30.02,SE,143,20.7,20.7,6,0.00,FEW,,0.00,663.0,WeatherDisplay:10.37,2013-10-05 20:41:00,
2013-10-05 13:46:00,89.6,13.8,30.02,SE,141,14.0,14.0,6,0.00,SCT,,0.00,559.0,WeatherDisplay:10.37,2013-10-05 20:46:00,
2013-10-05 13:51:00,89.8,14.0,30.02,ESE,121,14.0,14.0,6,0.00,FEW,,0.00,638.0,WeatherDisplay:10.37,2013-10-05 20:51:00,
2013-10-05 13:56:00,89.6,13.8,30.02,ESE,113,18.0,18.0,6,0.00,FEW,,0.00,645.0,WeatherDisplay:10.37,2013-10-05 20:56:00,
2013-10-05 14:01:00,89.7,13.9,30.01,ENE,75,15.0,15.0,6,0.00,FEW,,0.00,638.0,WeatherDisplay:10.37,2013-10-05 21:01:00,
2013-10-05 14:06:00,90.2,14.2,30.01,ESE,114,17.0,17.0,6,0.00,FEW,,0.00,633.0,WeatherDisplay:10.37,2013-10-05 21:06:00,
2013-10-05 14:11:00,89.9,14.0,30.01,SE,132,10.4,10.4,6,0.00,FEW,,0.00,628.0,WeatherDisplay:10.37,2013-10-05 21:11:00,
2013-10-05 14:16:00,89.9,14.0,30.01,SE,133,17.3,17.3,6,0.00,FEW,,0.00,619.0,WeatherDisplay:10.37,2013-10-05 21:16:00,
2013-10-05 14:21:00,90.0,14.1,30.01,SE,146,15.0,15.0,6,0.00,FEW,,0.00,612.0,WeatherDisplay:10.37,2013-10-05 21:21:00,
2013-10-05 14:26:00,90.2,14.2,30.01,SE,136,16.1,16.1,6,0.00,FEW,,0.00,601.0,WeatherDisplay:10.37,2013-10-05 21:26:00,
2013-10-05 14:31:00,89.9,14.0,30.01,ESE,123,11.0,11.0,6,0.00,FEW,,0.00,594.0,WeatherDisplay:10.37,2013-10-05 21:31:00,
2013-10-05 14:36:00,89.8,14.0,30.01,ESE,119,15.0,15.0,6,0.00,FEW,,0.00,584.0,WeatherDisplay:10.37,2013-10-05 21:36:00,
2013-10-05 14:41:00,90.1,14.2,30.01,East,94,11.0,11.0,6,0.00,FEW,,0.00,577.0,WeatherDisplay:10.37,2013-10-05 21:41:00,
2013-10-05 14:46:00,90.2,14.2,30.01,SE,126,8.1,8.1,6,0.00,FEW,,0.00,568.0,WeatherDisplay:10.37,2013-10-05 21:46:00,
2013-10-05 14:51:00,90.1,14.2,30.01,ENE,73,11.5,11.5,6,0.00,FEW,,0.00,555.0,WeatherDisplay:10.37,2013-10-05 21:51:00,
2013-10-05 14:56:00,90.0,14.1,30.01,East,82,10.4,10.4,6,0.00,FEW,,0.00,545.0,WeatherDisplay:10.37,2013-10-05 21:56:00,
2013-10-05 15:01:00,90.3,17.9,30.01,East,94,9.2,9.2,7,0.00,FEW,,0.00,534.0,WeatherDisplay:10.37,2013-10-05 22:01:00,
2013-10-05 15:06:00,90.6,14.5,30.01,ENE,60,10.4,10.4,6,0.00,FEW,,0.00,522.0,WeatherDisplay:10.37,2013-10-05 22:06:00,
2013-10-05 15:11:00,90.6,14.5,30.01,ESE,108,11.0,11.0,6,0.00,CLR,,0.00,512.0,WeatherDisplay:10.37,2013-10-05 22:11:00,
2013-10-05 15:16:00,90.3,14.3,30.01,ESE,116,12.7,12.7,6,0.00,CLR,,0.00,499.0,WeatherDisplay:10.37,2013-10-05 22:16:00,
2013-10-05 15:21:00,90.4,14.4,30.00,ESE,112,11.5,11.5,6,0.00,CLR,,0.00,489.0,WeatherDisplay:10.37,2013-10-05 22:21:00,
2013-10-05 15:26:00,90.6,14.5,30.00,ENE,67,12.7,12.7,6,0.00,CLR,,0.00,478.0,WeatherDisplay:10.37,2013-10-05 22:26:00,
2013-10-05 15:31:00,90.4,14.4,30.00,SE,140,10.4,10.4,6,0.00,CLR,,0.00,466.0,WeatherDisplay:10.37,2013-10-05 22:31:00,
2013-10-05 15:36:00,90.2,14.2,30.00,SSE,147,10.4,10.4,6,0.00,CLR,,0.00,452.0,WeatherDisplay:10.37,2013-10-05 22:36:00,
2013-10-05 15:41:00,90.5,14.5,30.00,ESE,119,9.0,9.0,6,0.00,CLR,,0.00,441.0,WeatherDisplay:10.37,2013-10-05 22:41:00,
2013-10-05 15:46:00,90.4,14.4,30.00,ESE,111,7.0,7.0,6,0.00,CLR,,0.00,427.0,WeatherDisplay:10.37,2013-10-05 22:46:00,
2013-10-05 15:51:00,90.7,14.6,30.00,ESE,118,8.1,8.1,6,0.00,CLR,,0.00,413.0,WeatherDisplay:10.37,2013-10-05 22:51:00,
2013-10-05 15:56:00,90.8,14.7,30.00,East,92,8.0,8.0,6,0.00,CLR,,0.00,401.0,WeatherDisplay:10.37,2013-10-05 22:56:00,
2013-10-05 16:01:00,90.8,14.7,30.00,ESE,107,9.2,9.2,6,0.00,CLR,,0.00,388.0,WeatherDisplay:10.37,2013-10-05 23:01:00,
2013-10-05 16:06:00,90.6,14.5,30.00,South,178,4.6,4.6,6,0.00,CLR,,0.00,374.0,WeatherDisplay:10.37,2013-10-05 23:06:00,
2013-10-05 16:11:00,90.7,14.6,30.00,SE,134,9.2,9.2,6,0.00,CLR,,0.00,360.0,WeatherDisplay:10.37,2013-10-05 23:11:00,
2013-10-05 16:16:00,90.9,14.7,30.00,SSE,156,7.0,7.0,6,0.00,CLR,,0.00,346.0,WeatherDisplay:10.37,2013-10-05 23:16:00,
2013-10-05 16:21:00,90.8,14.7,30.00,SE,145,8.1,8.1,6,0.00,CLR,,0.00,332.0,WeatherDisplay:10.37,2013-10-05 23:21:00,
2013-10-05 16:26:00,91.0,14.8,30.00,East,100,4.6,4.6,6,0.00,CLR,,0.00,316.0,WeatherDisplay:10.37,2013-10-05 23:26:00,
2013-10-05 16:31:00,91.0,14.8,29.99,ESE,105,3.5,3.5,6,0.00,CLR,,0.00,306.0,WeatherDisplay:10.37,2013-10-05 23:31:00,
2013-10-05 16:36:00,91.2,15.0,30.00,SE,125,8.1,8.1,6,0.00,CLR,,0.00,290.0,WeatherDisplay:10.37,2013-10-05 23:36:00,
2013-10-05 16:41:00,91.0,14.8,29.99,SE,130,4.0,4.0,6,0.00,CLR,,0.00,276.0,WeatherDisplay:10.37,2013-10-05 23:41:00,
2013-10-05 16:46:00,91.1,14.9,29.99,SSE,157,3.5,3.5,6,0.00,CLR,,0.00,262.0,WeatherDisplay:10.37,2013-10-05 23:46:00,
2013-10-05 16:51:00,91.0,14.8,30.00,SE,132,5.8,5.8,6,0.00,CLR,,0.00,244.0,WeatherDisplay:10.37,2013-10-05 23:51:00,
2013-10-05 16:56:00,90.8,14.7,29.99,SE,145,3.5,3.5,6,0.00,CLR,,0.00,223.0,WeatherDisplay:10.37,2013-10-05 23:56:00,
2013-10-05 17:01:00,91.0,14.8,30.00,SSE,159,3.5,3.5,6,0.00,CLR,,0.00,207.0,WeatherDisplay:10.37,2013-10-06 00:01:00,
2013-10-05 17:06:00,90.9,24.2,30.00,WNW,302,5.8,5.8,9,0.00,CLR,,0.00,195.0,WeatherDisplay:10.37,2013-10-06 00:06:00,
2013-10-05 17:11:00,89.8,23.4,30.00,West,280,6.9,6.9,9,0.00,CLR,,0.00,183.0,WeatherDisplay:10.37,2013-10-06 00:11:00,
2013-10-05 17:16:00,89.0,22.8,30.00,WNW,295,9.2,9.2,9,0.00,FEW,,0.00,165.0,WeatherDisplay:10.37,2013-10-06 00:16:00,
2013-10-05 17:21:00,88.7,22.6,30.00,West,261,6.9,6.9,9,0.00,FEW,,0.00,148.0,WeatherDisplay:10.37,2013-10-06 00:21:00,
2013-10-05 17:26:00,88.5,25.0,30.00,WNW,290,9.2,9.2,10,0.00,FEW,,0.00,132.0,WeatherDisplay:10.37,2013-10-06 00:26:00,
2013-10-05 17:31:00,88.3,24.8,29.99,West,269,8.1,8.1,10,0.00,FEW,,0.00,116.0,WeatherDisplay:10.37,2013-10-06 00:31:00,
2013-10-05 17:36:00,88.2,24.7,30.00,West,273,8.0,8.0,10,0.00,FEW,,0.00,100.0,WeatherDisplay:10.37,2013-10-06 00:36:00,
2013-10-05 17:41:00,88.0,26.9,30.00,West,263,6.9,6.9,11,0.00,SCT,,0.00,84.0,WeatherDisplay:10.37,2013-10-06 00:41:00,
2013-10-05 17:46:00,87.7,26.7,30.00,West,265,6.9,6.9,11,0.00,SCT,,0.00,69.0,WeatherDisplay:10.37,2013-10-06 00:46:00,
2013-10-05 17:51:00,87.5,28.6,30.00,West,261,6.0,6.0,12,0.00,SCT,,0.00,53.0,WeatherDisplay:10.37,2013-10-06 00:51:00,
2013-10-05 17:56:00,87.1,30.3,30.00,WNW,288,6.9,6.9,13,0.00,SCT,,0.00,42.0,WeatherDisplay:10.37,2013-10-06 00:56:00,
2013-10-05 18:01:00,86.6,29.9,30.00,West,274,5.8,5.8,13,0.00,BKN,,0.00,32.0,WeatherDisplay:10.37,2013-10-06 01:01:00,
2013-10-05 18:06:00,86.4,31.6,30.00,West,278,6.0,6.0,14,0.00,BKN,,0.00,23.0,WeatherDisplay:10.37,2013-10-06 01:06:00,
2013-10-05 18:11:00,85.9,32.9,30.00,WNW,288,5.0,5.0,15,0.00,BKN,,0.00,16.0,WeatherDisplay:10.37,2013-10-06 01:11:00,
2013-10-05 18:16:00,85.3,32.4,30.00,West,269,7.0,7.0,15,0.00,BKN,,0.00,12.0,WeatherDisplay:10.37,2013-10-06 01:16:00,
2013-10-05 18:21:00,84.7,33.5,30.00,WNW,288,6.9,6.9,16,0.00,BKN,,0.00,9.0,WeatherDisplay:10.37,2013-10-06 01:21:00,
2013-10-05 18:26:00,84.0,33.0,30.00,West,276,7.0,7.0,16,0.00,SCT,,0.00,7.0,WeatherDisplay:10.37,2013-10-06 01:26:00,
2013-10-05 18:31:00,83.4,32.5,30.00,WNW,290,8.1,8.1,16,0.00,CLR,,0.00,0.0,WeatherDisplay:10.37,2013-10-06 01:31:00,
2013-10-05 18:36:00,82.9,32.1,30.00,West,261,9.2,9.2,16,0.00,CLR,,0.00,0.0,WeatherDisplay:10.37,2013-10-06 01:36:00,
2013-10-05 18:41:00,82.3,33.1,30.00,West,279,6.9,6.9,17,0.00,CLR,,0.00,0.0,WeatherDisplay:10.37,2013-10-06 01:41:00,
2013-10-05 18:46:00,81.9,32.8,30.00,West,276,4.6,4.6,17,0.00,CLR,,0.00,0.0,WeatherDisplay:10.37,2013-10-06 01:46:00,
2013-10-05 18:51:00,81.5,33.9,30.01,WNW,284,6.0,6.0,18,0.00,CLR,,0.00,0.0,WeatherDisplay:10.37,2013-10-06 01:51:00,
2013-10-05 18:56:00,81.2,33.6,30.00,WNW,286,3.5,3.5,18,0.00,CLR,,0.00,0.0,WeatherDisplay:10.37,2013-10-06 01:56:00,
2013-10-05 19:01:00,80.8,34.7,30.00,WNW,286,3.5,3.5,19,0.00,CLR,,0.00,0.0,WeatherDisplay:10.37,2013-10-06 02:01:00,
2013-10-05 19:06:00,80.4,34.3,30.01,WNW,289,4.6,4.6,19,0.00,CLR,,0.00,0.0,WeatherDisplay:10.37,2013-10-06 02:06:00,
2013-10-05 19:11:00,80.1,32.7,30.01,WNW,288,4.0,4.0,18,0.00,CLR,,0.00,0.0,WeatherDisplay:10.37,2013-10-06 02:11:00,
2013-10-05 19:16:00,79.8,31.1,30.01,WNW,289,2.3,2.3,17,0.00,CLR,,0.00,0.0,WeatherDisplay:10.37,2013-10-06 02:16:00,
2013-10-05 19:21:00,79.5,30.8,30.01,WNW,289,3.5,3.5,17,0.00,CLR,,0.00,0.0,WeatherDisplay:10.37,2013-10-06 02:21:00,
2013-10-05 19:26:00,79.3,30.7,30.01,WNW,289,4.6,4.6,17,0.00,CLR,,0.00,0.0,WeatherDisplay:10.37,2013-10-06 02:26:00,
2013-10-05 19:31:00,79.1,29.0,30.01,NW,310,8.1,8.1,16,0.00,CLR,,0.00,0.0,WeatherDisplay:10.37,2013-10-06 02:31:00,
2013-10-05 19:36:00,79.1,29.0,30.01,NW,310,4.6,4.6,16,0.00,CLR,,0.00,0.0,WeatherDisplay:10.37,2013-10-06 02:36:00,
2013-10-05 19:41:00,78.9,30.4,30.01,NW,310,1.2,1.2,17,0.00,CLR,,0.00,0.0,WeatherDisplay:10.37,2013-10-06 02:41:00,
2013-10-05 19:46:00,78.6,30.1,30.01,NW,310,1.2,0.0,17,0.00,CLR,,0.00,0.0,WeatherDisplay:10.37,2013-10-06 02:46:00,
2013-10-05 19:51:00,78.2,29.8,30.01,NW,310,2.3,2.3,17,0.00,CLR,,0.00,0.0,WeatherDisplay:10.37,2013-10-06 02:51:00,
2013-10-05 19:56:00,77.9,26.5,30.01,NW,310,4.6,4.6,15,0.00,CLR,,0.00,0.0,WeatherDisplay:10.37,2013-10-06 02:56:00,
2013-10-05 20:02:00,78.0,26.6,30.01,NW,310,6.0,6.0,15,0.00,CLR,,0.00,0.0,WeatherDisplay:10.37,2013-10-06 03:02:00,
2013-10-05 20:07:00,78.0,24.9,30.01,NW,310,1.2,1.2,14,0.00,CLR,,0.00,0.0,WeatherDisplay:10.37,2013-10-06 03:07:00,
2013-10-05 20:12:00,77.7,26.3,30.01,NW,310,1.2,0.0,15,0.00,CLR,,0.00,0.0,WeatherDisplay:10.37,2013-10-06 03:12:00,
2013-10-05 20:17:00,77.4,26.1,30.02,NW,310,1.2,1.2,15,0.00,CLR,,0.00,0.0,WeatherDisplay:10.37,2013-10-06 03:17:00,
2013-10-05 20:22:00,77.1,27.4,30.01,NW,310,0.0,0.0,16,0.00,CLR,,0.00,0.0,WeatherDisplay:10.37,2013-10-06 03:22:00,
2013-10-05 20:27:00,76.7,28.6,30.02,NW,310,0.0,0.0,17,0.00,CLR,,0.00,0.0,WeatherDisplay:10.37,2013-10-06 03:27:00,
2013-10-05 20:32:00,76.2,28.2,30.02,NW,310,0.0,0.0,17,0.00,CLR,,0.00,0.0,WeatherDisplay:10.37,2013-10-06 03:32:00,
2013-10-05 20:37:00,75.8,27.8,30.02,NW,310,0.0,0.0,17,0.00,CLR,,0.00,0.0,WeatherDisplay:10.37,2013-10-06 03:37:00,
2013-10-05 20:42:00,75.4,31.5,30.02,NW,310,0.0,0.0,20,0.00,CLR,,0.00,0.0,WeatherDisplay:10.37,2013-10-06 03:42:00,
2013-10-05 20:47:00,74.8,29.8,30.02,NW,310,0.0,0.0,19,0.00,CLR,,0.00,0.0,WeatherDisplay:10.37,2013-10-06 03:47:00,
2013-10-05 20:52:00,74.6,29.6,30.02,NW,310,0.0,0.0,19,0.00,CLR,,0.00,0.0,WeatherDisplay:10.37,2013-10-06 03:52:00,
2013-10-05 20:57:00,74.0,31.6,30.02,NW,310,2.0,2.0,21,0.00,CLR,,0.00,0.0,WeatherDisplay:10.37,2013-10-06 03:57:00,
2013-10-05 21:01:00,73.8,30.2,30.02,NW,310,0.0,0.0,20,0.00,CLR,,0.00,0.0,WeatherDisplay:10.37,2013-10-06 04:01:00,
2013-10-05 21:03:00,73.7,31.3,30.02,NW,310,0.0,0.0,21,0.00,CLR,,0.00,0.0,WeatherDisplay:10.37,2013-10-06 04:03:00,
2013-10-05 21:08:00,73.2,32.1,30.02,NW,310,0.0,0.0,22,0.00,CLR,,0.00,0.0,WeatherDisplay:10.37,2013-10-06 04:08:00,
2013-10-05 21:13:00,72.6,32.7,30.02,NW,310,2.0,2.0,23,0.00,CLR,,0.00,0.0,WeatherDisplay:10.37,2013-10-06 04:13:00,
2013-10-05 21:18:00,72.1,32.2,30.02,NW,310,0.0,0.0,23,0.00,CLR,,0.00,0.0,WeatherDisplay:10.37,2013-10-06 04:18:00,
2013-10-05 21:23:00,71.7,33.0,30.03,NW,310,0.0,0.0,24,0.00,CLR,,0.00,0.0,WeatherDisplay:10.37,2013-10-06 04:23:00,
2013-10-05 21:28:00,71.2,33.6,30.03,NW,310,0.0,0.0,25,0.00,CLR,,0.00,0.0,WeatherDisplay:10.37,2013-10-06 04:28:00,
2013-10-05 21:33:00,70.8,34.2,30.03,NW,310,0.0,0.0,26,0.00,CLR,,0.00,0.0,WeatherDisplay:10.37,2013-10-06 04:33:00,
2013-10-05 21:38:00,70.4,33.9,30.03,NW,310,1.2,1.2,26,0.00,CLR,,0.00,0.0,WeatherDisplay:10.37,2013-10-06 04:38:00,
2013-10-05 21:43:00,70.2,34.6,30.03,NW,310,0.0,0.0,27,0.00,CLR,,0.00,0.0,WeatherDisplay:10.37,2013-10-06 04:43:00,
2013-10-05 21:48:00,69.8,34.3,30.03,NW,310,0.0,0.0,27,0.00,CLR,,0.00,0.0,WeatherDisplay:10.37,2013-10-06 04:48:00,
2013-10-05 21:53:00,69.6,35.0,30.03,NW,310,0.0,0.0,28,0.00,CLR,,0.00,0.0,WeatherDisplay:10.37,2013-10-06 04:53:00,
2013-10-05 21:58:00,69.3,34.8,30.03,NW,310,0.0,0.0,28,0.00,CLR,,0.00,0.0,WeatherDisplay:10.37,2013-10-06 04:58:00,
2013-10-05 22:03:00,69.1,34.6,30.04,NW,310,0.0,0.0,28,0.00,CLR,,0.00,0.0,WeatherDisplay:10.37,2013-10-06 05:03:00,
2013-10-05 22:08:00,68.8,35.2,30.04,NW,310,0.0,0.0,29,0.00,CLR,,0.00,0.0,WeatherDisplay:10.37,2013-10-06 05:08:00,
2013-10-05 22:13:00,68.4,34.9,30.04,NW,310,0.0,0.0,29,0.00,CLR,,0.00,0.0,WeatherDisplay:10.37,2013-10-06 05:13:00,
2013-10-05 22:18:00,68.2,35.6,30.04,NW,310,1.2,1.2,30,0.00,CLR,,0.00,0.0,WeatherDisplay:10.37,2013-10-06 05:18:00,
2013-10-05 22:23:00,68.1,35.5,30.04,NW,310,0.0,0.0,30,0.00,CLR,,0.00,0.0,WeatherDisplay:10.37,2013-10-06 05:23:00,
2013-10-05 22:28:00,68.0,36.2,30.04,NW,310,0.0,0.0,31,0.00,CLR,,0.00,0.0,WeatherDisplay:10.37,2013-10-06 05:28:00,
2013-10-05 22:33:00,67.9,36.1,30.04,NW,310,0.0,0.0,31,0.00,CLR,,0.00,0.0,WeatherDisplay:10.37,2013-10-06 05:33:00,
2013-10-05 22:38:00,67.7,36.0,30.04,NW,310,0.0,0.0,31,0.00,CLR,,0.00,0.0,WeatherDisplay:10.37,2013-10-06 05:38:00,
2013-10-05 22:43:00,67.8,35.2,30.04,NW,310,0.0,0.0,30,0.00,CLR,,0.00,0.0,WeatherDisplay:10.37,2013-10-06 05:43:00,
2013-10-05 22:48:00,67.7,35.1,30.04,NW,310,0.0,0.0,30,0.00,CLR,,0.00,0.0,WeatherDisplay:10.37,2013-10-06 05:48:00,
2013-10-05 22:53:00,67.6,35.9,30.04,NW,310,2.3,2.3,31,0.00,CLR,,0.00,0.0,WeatherDisplay:10.37,2013-10-06 05:53:00,
2013-10-05 22:58:00,67.6,35.9,30.04,NW,310,2.0,2.0,31,0.00,CLR,,0.00,0.0,WeatherDisplay:10.37,2013-10-06 05:58:00,
2013-10-05 23:03:00,67.3,36.4,30.04,NW,310,1.2,1.2,32,0.00,CLR,,0.00,0.0,WeatherDisplay:10.37,2013-10-06 06:03:00,
2013-10-05 23:08:00,66.8,36.8,30.04,NW,310,2.3,2.3,33,0.00,CLR,,0.00,0.0,WeatherDisplay:10.37,2013-10-06 06:08:00,
2013-10-05 23:13:00,66.7,35.9,30.04,NW,310,3.5,3.5,32,0.00,CLR,,0.00,0.0,WeatherDisplay:10.37,2013-10-06 06:13:00,
2013-10-05 23:18:00,66.7,35.1,30.04,NW,310,3.5,3.5,31,0.00,CLR,,0.00,0.0,WeatherDisplay:10.37,2013-10-06 06:18:00,
2013-10-05 23:23:00,66.8,35.2,30.03,NW,310,3.5,3.5,31,0.00,CLR,,0.00,0.0,WeatherDisplay:10.37,2013-10-06 06:23:00,
2013-10-05 23:28:00,67.0,34.5,30.04,NW,310,0.0,0.0,30,0.00,CLR,,0.00,0.0,WeatherDisplay:10.37,2013-10-06 06:28:00,
2013-10-05 23:33:00,67.1,34.6,30.04,NW,310,2.3,2.3,30,0.00,CLR,,0.00,0.0,WeatherDisplay:10.37,2013-10-06 06:33:00,
2013-10-05 23:38:00,66.9,35.3,30.04,NW,310,1.2,0.0,31,0.00,CLR,,0.00,0.0,WeatherDisplay:10.37,2013-10-06 06:38:00,
2013-10-05 23:43:00,66.7,35.1,30.04,NW,310,0.0,0.0,31,0.00,CLR,,0.00,0.0,WeatherDisplay:10.37,2013-10-06 06:43:00,
2013-10-05 23:48:00,66.4,34.8,30.04,NW,310,0.0,0.0,31,0.00,CLR,,0.00,0.0,WeatherDisplay:10.37,2013-10-06 06:48:00,
2013-10-05 23:53:00,66.1,35.4,30.04,NW,310,0.0,0.0,32,0.00,CLR,,0.00,0.0,WeatherDisplay:10.37,2013-10-06 06:53:00,
2013-10-05 23:58:00,65.8,35.9,30.04,NW,310,1.2,1.2,33,0.00,CLR,,0.00,0.0,WeatherDisplay:10.37,2013-10-06 06:58:00,